createdAt,value
2019-01-19T00:01:34.294Z,-1.33
2019-01-19T00:04:59.809Z,-1.35
2019-01-19T00:07:58.401Z,-1.37
2019-01-19T00:11:14.090Z,-1.37
2019-01-19T00:14:29.250Z,-1.39
2019-01-19T00:17:30.908Z,-1.39
2019-01-19T00:20:35.050Z,-1.41
2019-01-19T00:23:48.349Z,-1.45
2019-01-19T00:27:08.505Z,-1.43
2019-01-19T00:30:22.164Z,-1.34
2019-01-19T00:33:26.306Z,-1.44
2019-01-19T00:36:13.953Z,-1.37
2019-01-19T00:39:24.611Z,-1.42
2019-01-19T00:42:32.034Z,-1.38
2019-01-19T00:45:24.103Z,-1.42
2019-01-19T00:48:29.951Z,-1.40
2019-01-19T00:51:29.107Z,-1.43
2019-01-19T00:54:28.878Z,-1.54
2019-01-19T00:57:13.790Z,-1.50
2019-01-19T00:59:46.567Z,-1.50
2019-01-19T01:02:55.823Z,-1.52
2019-01-19T01:05:47.762Z,-1.56
2019-01-19T01:08:49.549Z,-1.48
2019-01-19T01:11:43.624Z,-1.50
2019-01-19T01:14:56.585Z,-1.49
2019-01-19T01:17:59.848Z,-1.46
2019-01-19T01:21:03.569Z,-1.43
2019-01-19T01:24:06.081Z,-1.47
2019-01-19T01:27:27.837Z,-1.50
2019-01-19T01:30:20.763Z,-1.51
2019-01-19T01:33:14.771Z,-1.50
2019-01-19T01:36:24.659Z,-1.49
2019-01-19T01:39:44.615Z,-1.50
2019-01-19T01:42:52.144Z,-1.52
2019-01-19T01:45:59.326Z,-1.47
2019-01-19T01:48:55.639Z,-1.53
2019-01-19T01:51:35.527Z,-1.53
2019-01-19T01:54:28.655Z,-1.53
2019-01-19T01:57:01.380Z,-1.55
2019-01-19T02:00:23.881Z,-1.55
2019-01-19T02:03:49.390Z,-1.55
2019-01-19T02:07:11.855Z,-1.45
2019-01-19T02:10:17.812Z,-1.46
2019-01-19T02:12:56.953Z,-1.48
2019-01-19T02:15:42.059Z,-1.46
2019-01-19T02:18:52.477Z,-1.51
2019-01-19T02:22:04.969Z,-1.59
2019-01-19T02:25:01.634Z,-1.57
2019-01-19T02:28:07.691Z,-1.60
2019-01-19T02:31:20.597Z,-1.59
2019-01-19T02:34:18.296Z,-1.64
2019-01-19T02:37:07.748Z,-1.67
2019-01-19T02:40:16.833Z,-1.61
2019-01-19T02:43:23.518Z,-1.63
2019-01-19T02:46:32.029Z,-1.65
2019-01-19T02:49:20.932Z,-1.72
2019-01-19T02:52:31.752Z,-1.75
2019-01-19T02:55:43.621Z,-1.82
2019-01-19T02:58:44.067Z,-1.86
2019-01-19T03:02:08.687Z,-1.83
2019-01-19T03:05:05.509Z,-1.87
2019-01-19T03:07:47.210Z,-1.93
2019-01-19T03:10:44.356Z,-1.95
2019-01-19T03:13:39.671Z,-2.06
2019-01-19T03:16:53.419Z,-1.97
2019-01-19T03:19:48.218Z,-1.99
2019-01-19T03:23:14.144Z,-2.19
2019-01-19T03:26:45.597Z,-2.15
2019-01-19T03:29:41.608Z,-2.18
2019-01-19T03:32:37.666Z,-2.19
2019-01-19T03:35:44.419Z,-2.26
2019-01-19T03:38:56.680Z,-2.26
2019-01-19T03:42:12.036Z,-2.29
2019-01-19T03:45:19.473Z,-2.34
2019-01-19T03:48:24.205Z,-2.31
2019-01-19T03:51:23.399Z,-2.41
2019-01-19T03:54:23.791Z,-2.48
2019-01-19T03:57:33.127Z,-2.41
2019-01-19T04:00:42.865Z,-2.41
2019-01-19T04:03:58.136Z,-2.53
2019-01-19T04:06:55.904Z,-2.53
2019-01-19T04:09:58.084Z,-2.56
2019-01-19T04:12:50.332Z,-2.49
2019-01-19T04:15:48.128Z,-2.46
2019-01-19T04:18:28.760Z,-2.44
2019-01-19T04:21:36.621Z,-2.37
2019-01-19T04:24:22.643Z,-2.47
2019-01-19T04:26:55.176Z,-2.48
2019-01-19T04:29:24.746Z,-2.46
2019-01-19T04:31:53.960Z,-2.42
2019-01-19T04:34:25.116Z,-2.35
2019-01-19T04:36:54.301Z,-2.50
2019-01-19T04:39:23.468Z,-2.51
2019-01-19T04:41:52.703Z,-2.45
2019-01-19T04:44:22.236Z,-2.43
2019-01-19T04:46:51.736Z,-2.41
2019-01-19T04:49:21.214Z,-2.51
2019-01-19T04:51:50.455Z,-2.60
2019-01-19T04:54:19.820Z,-2.60
2019-01-19T04:56:49.030Z,-2.61
2019-01-19T04:59:18.527Z,-2.59
2019-01-19T05:01:47.733Z,-2.64
2019-01-19T05:04:17.326Z,-2.63
2019-01-19T05:06:46.554Z,-2.75
2019-01-19T05:09:16.177Z,-2.79
2019-01-19T05:11:45.379Z,-2.75
2019-01-19T05:14:14.956Z,-2.79
2019-01-19T05:16:44.166Z,-2.75
2019-01-19T05:19:13.322Z,-2.90
2019-01-19T05:21:42.833Z,-2.90
2019-01-19T05:24:11.978Z,-2.88
2019-01-19T05:26:41.165Z,-2.95
2019-01-19T05:29:10.667Z,-2.93
2019-01-19T05:31:39.830Z,-3.06
2019-01-19T05:34:09.671Z,-3.05
2019-01-19T05:36:38.843Z,-3.02
2019-01-19T05:39:08.924Z,-2.94
2019-01-19T05:41:38.132Z,-3.01
2019-01-19T05:44:07.504Z,-3.04
2019-01-19T05:46:37.009Z,-3.12
2019-01-19T05:49:06.209Z,-3.10
2019-01-19T05:51:35.390Z,-3.17
2019-01-19T05:54:04.829Z,-3.10
2019-01-19T05:56:34.117Z,-3.18
2019-01-19T05:59:03.749Z,-3.14
2019-01-19T06:01:32.991Z,-3.17
2019-01-19T06:04:02.194Z,-3.16
2019-01-19T06:06:31.344Z,-3.19
2019-01-19T06:09:01.321Z,-3.17
2019-01-19T06:11:30.682Z,-3.16
2019-01-19T06:14:00.339Z,-3.19
2019-01-19T06:16:30.384Z,-3.20
2019-01-19T06:18:59.866Z,-3.21
2019-01-19T06:21:33.017Z,-3.25
2019-01-19T06:24:02.196Z,-3.25
2019-01-19T06:26:31.377Z,-3.24
2019-01-19T06:29:00.560Z,-3.21
2019-01-19T06:31:29.753Z,-3.21
2019-01-19T06:33:58.934Z,-3.26
2019-01-19T06:36:28.078Z,-3.29
2019-01-19T06:38:57.958Z,-3.29
2019-01-19T06:41:27.118Z,-3.26
2019-01-19T06:43:56.866Z,-3.25
2019-01-19T06:46:26.404Z,-3.23
2019-01-19T06:48:55.593Z,-3.20
2019-01-19T06:51:24.769Z,-3.24
2019-01-19T06:54:01.552Z,-3.24
2019-01-19T06:56:26.480Z,-3.18
2019-01-19T06:58:55.650Z,-3.16
2019-01-19T07:01:25.215Z,-3.12
2019-01-19T07:03:54.372Z,-3.08
2019-01-19T07:06:23.590Z,-3.08
2019-01-19T07:08:53.056Z,-3.13
2019-01-19T07:11:22.658Z,-3.08
2019-01-19T07:13:51.864Z,-3.10
2019-01-19T07:16:21.041Z,-3.09
2019-01-19T07:18:50.796Z,-3.03
2019-01-19T07:21:20.590Z,-3.05
2019-01-19T07:23:50.081Z,-3.01
2019-01-19T07:26:19.903Z,-2.95
2019-01-19T07:28:49.434Z,-2.91
2019-01-19T07:31:19.328Z,-2.96
2019-01-19T07:33:48.844Z,-2.90
2019-01-19T07:36:18.325Z,-2.85
2019-01-19T07:38:47.828Z,-2.87
2019-01-19T07:41:17.448Z,-2.82
2019-01-19T07:43:46.615Z,-2.83
2019-01-19T07:46:16.572Z,-2.83
2019-01-19T07:48:45.753Z,-2.83
2019-01-19T07:51:15.276Z,-2.82
2019-01-19T07:53:44.625Z,-2.89
2019-01-19T07:56:13.804Z,-2.93
2019-01-19T07:58:43.085Z,-2.79
2019-01-19T08:01:14.462Z,-2.79
2019-01-19T08:03:43.646Z,-2.82
2019-01-19T08:06:13.954Z,-2.83
2019-01-19T08:08:45.709Z,-2.81
2019-01-19T08:11:15.236Z,-2.80
2019-01-19T08:13:44.936Z,-2.80
2019-01-19T08:16:14.193Z,-2.73
2019-01-19T08:18:44.219Z,-2.63
2019-01-19T08:21:13.667Z,-2.61
2019-01-19T08:23:43.254Z,-2.57
2019-01-19T08:26:12.431Z,-2.54
2019-01-19T08:28:41.645Z,-2.37
2019-01-19T08:31:11.268Z,-2.32
2019-01-19T08:33:40.419Z,-2.37
2019-01-19T08:36:10.354Z,-2.28
2019-01-19T08:38:39.563Z,-2.26
2019-01-19T08:41:08.760Z,-2.26
2019-01-19T08:43:45.009Z,-2.16
2019-01-19T08:46:14.253Z,-2.19
2019-01-19T08:48:43.510Z,-2.17
2019-01-19T08:51:14.276Z,-2.11
2019-01-19T08:53:43.497Z,-2.00
2019-01-19T08:56:12.986Z,-1.95
2019-01-19T08:58:42.504Z,-1.80
2019-01-19T09:01:12.045Z,-1.75
2019-01-19T09:03:41.644Z,-1.79
2019-01-19T09:06:10.885Z,-1.64
2019-01-19T09:08:40.632Z,-1.69
2019-01-19T09:11:09.857Z,-1.55
2019-01-19T09:13:39.461Z,-1.57
2019-01-19T09:16:17.007Z,-1.56
2019-01-19T09:18:46.864Z,-1.58
2019-01-19T09:21:16.476Z,-1.55
2019-01-19T09:24:02.048Z,-1.59
2019-01-19T09:26:31.311Z,-1.64
2019-01-19T09:29:00.510Z,-1.72
2019-01-19T09:31:30.046Z,-1.65
2019-01-19T09:34:00.127Z,-1.64
2019-01-19T09:36:29.435Z,-1.73
2019-01-19T09:38:58.988Z,-1.61
2019-01-19T09:41:28.205Z,-1.73
2019-01-19T09:43:58.203Z,-1.56
2019-01-19T09:46:27.357Z,-1.60
2019-01-19T09:48:56.651Z,-1.60
2019-01-19T09:51:26.161Z,-1.36
2019-01-19T09:53:55.761Z,-1.42
2019-01-19T09:56:24.994Z,-1.47
2019-01-19T09:58:54.503Z,-1.49
2019-01-19T10:01:25.471Z,-1.44
2019-01-19T10:03:55.799Z,-1.54
2019-01-19T10:06:25.116Z,-1.49
2019-01-19T10:08:55.235Z,-1.54
2019-01-19T10:11:24.961Z,-1.43
2019-01-19T10:13:54.821Z,-1.28
2019-01-19T10:16:24.904Z,-1.46
2019-01-19T10:18:54.608Z,-1.37
2019-01-19T10:21:24.124Z,-1.47
2019-01-19T10:23:53.777Z,-1.20
2019-01-19T10:26:24.218Z,-1.27
2019-01-19T10:28:53.928Z,-1.10
2019-01-19T10:31:23.236Z,-1.16
2019-01-19T10:33:52.707Z,-1.24
2019-01-19T10:36:22.549Z,-1.17
2019-01-19T10:38:52.357Z,-1.26
2019-01-19T10:41:21.981Z,-1.03
2019-01-19T10:43:51.512Z,-1.11
2019-01-19T10:46:21.376Z,-0.96
2019-01-19T10:48:50.685Z,-0.99
2019-01-19T10:51:20.211Z,-1.13
2019-01-19T10:53:49.809Z,-0.84
2019-01-19T10:56:19.005Z,-0.99
2019-01-19T10:58:48.548Z,-0.71
2019-01-19T11:01:17.997Z,-0.83
2019-01-19T11:03:47.443Z,-0.78
2019-01-19T11:06:16.688Z,-0.87
2019-01-19T11:08:45.870Z,-0.85
2019-01-19T11:11:15.637Z,-0.74
2019-01-19T11:13:45.207Z,-0.57
2019-01-19T11:16:14.372Z,-0.62
2019-01-19T11:18:43.567Z,-0.70
2019-01-19T11:21:12.821Z,-0.80
2019-01-19T11:23:43.198Z,-0.71
2019-01-19T11:26:12.402Z,-0.53
2019-01-19T11:28:45.019Z,-0.41
2019-01-19T11:31:14.223Z,-0.50
2019-01-19T11:33:43.691Z,-0.32
2019-01-19T11:36:12.885Z,-0.32
2019-01-19T11:38:42.109Z,-0.35
2019-01-19T11:41:11.706Z,-0.42
2019-01-19T11:43:40.914Z,-0.19
2019-01-19T11:46:10.643Z,-0.26
2019-01-19T11:48:40.476Z,-0.28
2019-01-19T11:51:09.662Z,-0.25
2019-01-19T11:53:38.884Z,-0.24
2019-01-19T11:56:12.298Z,-0.26
2019-01-19T11:58:39.284Z,-0.12
2019-01-19T12:01:08.563Z,0.05
2019-01-19T12:03:37.742Z,-0.05
2019-01-19T12:06:07.072Z,0.20
2019-01-19T12:08:36.742Z,0.09
2019-01-19T12:11:06.907Z,0.13
2019-01-19T12:13:36.553Z,0.15
2019-01-19T12:16:05.977Z,0.11
2019-01-19T12:18:35.525Z,0.15
2019-01-19T12:21:05.066Z,0.27
2019-01-19T12:23:34.607Z,0.25
2019-01-19T12:26:03.829Z,0.25
2019-01-19T12:28:32.971Z,0.26
2019-01-19T12:31:02.475Z,0.32
2019-01-19T12:33:31.657Z,0.36
2019-01-19T12:36:00.810Z,0.36
2019-01-19T12:38:29.985Z,0.40
2019-01-19T12:40:59.174Z,0.51
2019-01-19T12:43:28.326Z,0.57
2019-01-19T12:46:02.732Z,0.64
2019-01-19T12:48:32.267Z,0.49
2019-01-19T12:51:03.376Z,0.69
2019-01-19T12:53:32.709Z,0.63
2019-01-19T12:56:02.249Z,0.56
2019-01-19T12:58:31.414Z,0.47
2019-01-19T13:01:00.620Z,0.67
2019-01-19T13:03:30.358Z,0.67
2019-01-19T13:06:39.055Z,0.66
2019-01-19T13:09:38.489Z,0.66
2019-01-19T13:12:46.373Z,0.63
2019-01-19T13:15:55.740Z,0.69
2019-01-19T13:18:50.634Z,0.75
2019-01-19T13:21:49.500Z,0.64
2019-01-19T13:25:05.265Z,0.78
2019-01-19T13:28:23.239Z,0.68
2019-01-19T13:31:28.346Z,0.66
2019-01-19T13:34:31.702Z,0.71
2019-01-19T13:37:25.781Z,0.67
2019-01-19T13:40:41.138Z,0.71
2019-01-19T13:43:50.411Z,0.63
2019-01-19T13:46:56.892Z,0.62
2019-01-19T13:50:16.306Z,0.54
2019-01-19T13:53:25.307Z,0.65
2019-01-19T13:56:42.663Z,0.74
2019-01-19T14:00:08.369Z,0.59
2019-01-19T14:03:14.601Z,0.51
2019-01-19T14:06:33.444Z,0.57
2019-01-19T14:09:27.181Z,0.55
2019-01-19T14:12:22.572Z,0.49
2019-01-19T14:15:41.947Z,0.51
2019-01-19T14:18:43.161Z,0.46
2019-01-19T14:22:04.821Z,0.43
2019-01-19T14:25:02.697Z,0.52
2019-01-19T14:28:09.052Z,0.40
2019-01-19T14:31:08.061Z,0.37
2019-01-19T14:34:00.830Z,0.30
2019-01-19T14:36:52.646Z,0.14
2019-01-19T14:39:43.395Z,0.28
2019-01-19T14:42:51.054Z,0.12
2019-01-19T14:45:49.676Z,0.34
2019-01-19T14:48:57.551Z,0.41
2019-01-19T14:51:52.390Z,0.23
2019-01-19T14:55:05.737Z,0.16
2019-01-19T14:58:02.285Z,0.13
2019-01-19T15:01:07.231Z,-0.01
2019-01-19T15:04:23.897Z,-0.12
2019-01-19T15:07:52.555Z,0.06
2019-01-19T15:10:42.867Z,-0.13
2019-01-19T15:13:48.065Z,-0.26
2019-01-19T15:16:50.792Z,-0.26
2019-01-19T15:19:56.187Z,-0.43
2019-01-19T15:23:06.236Z,-0.55
2019-01-19T15:26:04.188Z,-0.60
2019-01-19T15:28:53.071Z,-0.55
2019-01-19T15:32:12.620Z,-0.50
2019-01-19T15:35:06.519Z,-0.62
2019-01-19T15:38:14.751Z,-0.80
2019-01-19T15:41:07.442Z,-0.83
2019-01-19T15:43:56.632Z,-0.86
2019-01-19T15:47:26.011Z,-0.99
2019-01-19T15:50:29.879Z,-0.99
2019-01-19T15:53:37.548Z,-0.93
2019-01-19T15:56:22.910Z,-1.11
2019-01-19T15:59:18.674Z,-1.16
2019-01-19T16:02:23.882Z,-1.03
2019-01-19T16:05:20.425Z,-1.18
2019-01-19T16:08:28.841Z,-1.26
2019-01-19T16:11:34.366Z,-1.32
2019-01-19T16:14:59.838Z,-1.51
2019-01-19T16:18:43.499Z,-1.46
2019-01-19T16:22:06.226Z,-1.55
2019-01-19T16:25:17.264Z,-1.48
2019-01-19T16:28:04.573Z,-1.43
2019-01-19T16:31:30.018Z,-1.25
2019-01-19T16:34:43.732Z,-1.33
2019-01-19T16:37:52.207Z,-1.48
2019-01-19T16:40:49.164Z,-1.39
2019-01-19T16:43:43.283Z,-1.23
2019-01-19T16:47:20.889Z,-1.21
2019-01-19T16:50:19.021Z,-1.40
2019-01-19T16:53:20.373Z,-1.47
2019-01-19T16:56:33.810Z,-1.46
2019-01-19T16:59:24.962Z,-1.44
2019-01-19T17:02:40.269Z,-1.49
2019-01-19T17:05:41.381Z,-1.42
2019-01-19T17:08:56.901Z,-1.41
2019-01-19T17:12:21.575Z,-1.45
2019-01-19T17:15:13.729Z,-1.44
2019-01-19T17:18:29.053Z,-1.60
2019-01-19T17:21:41.495Z,-1.59
2019-01-19T17:24:42.947Z,-1.63
2019-01-19T17:27:39.788Z,-1.54
2019-01-19T17:30:31.953Z,-1.63
2019-01-19T17:33:38.031Z,-1.78
2019-01-19T17:36:42.915Z,-1.82
2019-01-19T17:39:59.931Z,-1.86
2019-01-19T17:43:34.401Z,-1.73
2019-01-19T17:47:12.039Z,-1.83
2019-01-19T17:50:31.756Z,-1.75
2019-01-19T17:54:06.991Z,-1.83
2019-01-19T17:57:35.391Z,-1.68
2019-01-19T18:00:42.873Z,-1.84
2019-01-19T18:03:48.335Z,-1.79
2019-01-19T18:06:28.576Z,-1.90
2019-01-19T18:09:29.399Z,-1.98
2019-01-19T18:12:37.136Z,-1.86
2019-01-19T18:15:46.064Z,-1.99
2019-01-19T18:18:38.651Z,-2.06
2019-01-19T18:21:24.874Z,-1.93
2019-01-19T18:24:48.086Z,-2.00
2019-01-19T18:27:59.095Z,-1.89
2019-01-19T18:31:10.082Z,-2.11
2019-01-19T18:34:17.503Z,-2.02
2019-01-19T18:37:55.695Z,-2.00
2019-01-19T18:40:55.455Z,-2.03
2019-01-19T18:44:09.213Z,-2.01
2019-01-19T18:47:16.910Z,-2.00
2019-01-19T18:50:20.924Z,-2.10
2019-01-19T18:53:21.708Z,-1.96
2019-01-19T18:56:27.777Z,-2.01
2019-01-19T18:59:24.209Z,-2.00
2019-01-19T19:02:30.713Z,-2.01
2019-01-19T19:05:39.927Z,-2.13
2019-01-19T19:08:45.003Z,-2.29
2019-01-19T19:11:43.303Z,-2.25
2019-01-19T19:14:20.100Z,-2.31
2019-01-19T19:17:45.904Z,-2.32
2019-01-19T19:20:37.764Z,-2.34
2019-01-19T19:23:23.452Z,-2.30
2019-01-19T19:26:18.943Z,-2.38
2019-01-19T19:29:35.079Z,-2.38
2019-01-19T19:32:25.915Z,-2.47
2019-01-19T19:35:28.969Z,-2.43
2019-01-19T19:38:44.658Z,-2.46
2019-01-19T19:42:03.990Z,-2.65
2019-01-19T19:45:06.604Z,-2.64
2019-01-19T19:48:10.573Z,-2.56
2019-01-19T19:51:16.462Z,-2.56
2019-01-19T19:53:45.955Z,-2.49
2019-01-19T19:56:13.857Z,-2.61
2019-01-19T19:58:43.084Z,-2.52
2019-01-19T20:01:12.272Z,-2.53
2019-01-19T20:03:41.839Z,-2.75
2019-01-19T20:06:11.552Z,-2.76
2019-01-19T20:08:40.787Z,-2.70
2019-01-19T20:11:10.007Z,-2.71
2019-01-19T20:13:39.169Z,-2.83
2019-01-19T20:16:08.735Z,-2.91
2019-01-19T20:18:38.411Z,-2.83
2019-01-19T20:21:07.571Z,-2.87
2019-01-19T20:23:37.187Z,-3.02
2019-01-19T20:26:06.766Z,-3.05
2019-01-19T20:28:37.769Z,-2.90
2019-01-19T20:31:07.463Z,-2.86
2019-01-19T20:33:37.110Z,-2.78
2019-01-19T20:36:06.589Z,-2.95
2019-01-19T20:38:35.793Z,-3.17
2019-01-19T20:41:05.437Z,-3.12
2019-01-19T20:43:34.724Z,-3.03
2019-01-19T20:46:05.368Z,-3.06
2019-01-19T20:48:37.087Z,-3.03
2019-01-19T20:51:06.378Z,-3.07
2019-01-19T20:53:36.339Z,-3.01
2019-01-19T20:56:06.539Z,-2.98
2019-01-19T20:58:36.118Z,-2.97
2019-01-19T21:01:05.281Z,-3.05
2019-01-19T21:03:34.423Z,-3.15
2019-01-19T21:06:05.024Z,-3.02
2019-01-19T21:08:34.505Z,-3.07
2019-01-19T21:11:03.792Z,-3.08
2019-01-19T21:13:33.377Z,-3.24
2019-01-19T21:16:02.607Z,-3.24
2019-01-19T21:18:32.181Z,-3.24
2019-01-19T21:21:01.546Z,-3.21
2019-01-19T21:23:30.677Z,-3.29
2019-01-19T21:25:59.880Z,-3.23
2019-01-19T21:28:29.029Z,-3.20
2019-01-19T21:30:58.313Z,-3.13
2019-01-19T21:33:27.515Z,-3.12
2019-01-19T21:35:56.815Z,-3.10
2019-01-19T21:38:26.038Z,-3.19
2019-01-19T21:40:55.573Z,-3.27
2019-01-19T21:43:25.313Z,-3.28
2019-01-19T21:45:54.619Z,-3.36
2019-01-19T21:48:24.215Z,-3.36
2019-01-19T21:50:54.779Z,-3.25
2019-01-19T21:53:24.078Z,-3.25
2019-01-19T21:55:53.719Z,-3.37
2019-01-19T21:58:23.227Z,-3.31
2019-01-19T22:00:52.453Z,-3.39
2019-01-19T22:03:22.037Z,-3.41
2019-01-19T22:05:51.893Z,-3.43
2019-01-19T22:08:21.737Z,-3.48
2019-01-19T22:10:50.899Z,-3.63
2019-01-19T22:13:20.614Z,-3.70
2019-01-19T22:15:49.852Z,-3.64
2019-01-19T22:18:19.004Z,-3.72
2019-01-19T22:20:48.614Z,-3.70
2019-01-19T22:23:18.190Z,-3.78
2019-01-19T22:25:47.525Z,-3.90
2019-01-19T22:28:17.236Z,-3.85
2019-01-19T22:30:46.424Z,-3.60
2019-01-19T22:33:16.262Z,-3.68
2019-01-19T22:35:45.453Z,-3.67
2019-01-19T22:38:14.695Z,-3.78
2019-01-19T22:40:44.227Z,-3.84
2019-01-19T22:43:17.669Z,-3.95
2019-01-19T22:45:47.245Z,-3.93
2019-01-19T22:48:16.491Z,-3.90
2019-01-19T22:50:45.664Z,-4.03
2019-01-19T22:53:15.262Z,-3.93
2019-01-19T22:55:44.714Z,-3.91
2019-01-19T22:58:14.139Z,-3.91
2019-01-19T23:01:20.601Z,-4.00
2019-01-19T23:03:50.139Z,-3.97
2019-01-19T23:06:19.296Z,-4.03
2019-01-19T23:08:48.492Z,-4.03
2019-01-19T23:11:17.714Z,-4.19
2019-01-19T23:13:47.638Z,-4.19
2019-01-19T23:16:17.272Z,-4.21
2019-01-19T23:18:46.782Z,-4.14
2019-01-19T23:21:16.166Z,-4.06
2019-01-19T23:23:45.314Z,-4.22
2019-01-19T23:26:14.892Z,-4.31
2019-01-19T23:28:44.805Z,-4.33
2019-01-19T23:31:14.288Z,-4.33
2019-01-19T23:33:43.823Z,-4.14
2019-01-19T23:36:13.912Z,-4.14
2019-01-19T23:38:43.058Z,-4.07
2019-01-19T23:41:12.235Z,-4.31
2019-01-19T23:43:41.735Z,-4.37
2019-01-19T23:46:11.352Z,-4.37
2019-01-19T23:48:40.528Z,-4.30
2019-01-19T23:51:11.469Z,-4.30
2019-01-19T23:53:41.396Z,-4.45
2019-01-19T23:56:10.705Z,-4.45
2019-01-19T23:58:40.184Z,-4.52
